sensor_id;sensor_type;location;lat;lon;timestamp;pressure;altitude;pressure_sealevel;temperature;humidity
62333;BME280;48624;49.812;8.562;2022-09-03T00:01:28;100141.63;;;18.25;46.13
62333;BME280;48624;49.812;8.562;2022-09-03T00:04:04;100132.25;;;18.29;45.25
62333;BME280;48624;49.812;8.562;2022-09-03T00:06:40;100135.56;;;18.14;45.85
62333;BME280;48624;49.812;8.562;2022-09-03T00:09:22;100136.41;;;18.15;45.79
62333;BME280;48624;49.812;8.562;2022-09-03T00:12:08;100137.28;;;17.89;46.67
62333;BME280;48624;49.812;8.562;2022-09-03T00:14:39;100138.63;;;17.93;46.27
62333;BME280;48624;49.812;8.562;2022-09-03T00:17:13;100132.78;;;17.98;46.24
62333;BME280;48624;49.812;8.562;2022-09-03T00:19:45;100127.09;;;17.93;46.03
62333;BME280;48624;49.812;8.562;2022-09-03T00:22:21;100128.06;;;17.92;45.79
62333;BME280;48624;49.812;8.562;2022-09-03T00:24:49;100133.59;;;17.90;45.77
62333;BME280;48624;49.812;8.562;2022-09-03T00:27:19;100133.06;;;17.86;45.71
62333;BME280;48624;49.812;8.562;2022-09-03T00:32:44;100127.56;;;17.88;46.47
62333;BME280;48624;49.812;8.562;2022-09-03T00:35:15;100130.75;;;17.92;45.50
62333;BME280;48624;49.812;8.562;2022-09-03T00:37:43;100124.00;;;17.79;46.11
62333;BME280;48624;49.812;8.562;2022-09-03T00:40:37;100117.47;;;17.82;46.94
62333;BME280;48624;49.812;8.562;2022-09-03T00:46:23;100131.22;;;17.87;46.11
62333;BME280;48624;49.812;8.562;2022-09-03T00:49:05;100118.00;;;17.51;47.23
62333;BME280;48624;49.812;8.562;2022-09-03T00:51:48;100127.03;;;17.84;45.96
62333;BME280;48624;49.812;8.562;2022-09-03T00:54:25;100125.03;;;17.86;46.38
62333;BME280;48624;49.812;8.562;2022-09-03T00:57:19;100118.38;;;17.99;46.19
62333;BME280;48624;49.812;8.562;2022-09-03T01:00:02;100124.19;;;18.12;45.10
62333;BME280;48624;49.812;8.562;2022-09-03T01:08:19;100126.63;;;18.06;45.81
62333;BME280;48624;49.812;8.562;2022-09-03T01:11:00;100114.97;;;18.23;44.97
62333;BME280;48624;49.812;8.562;2022-09-03T01:16:08;100121.59;;;18.02;45.40
62333;BME280;48624;49.812;8.562;2022-09-03T01:24:02;100114.66;;;18.18;45.20
62333;BME280;48624;49.812;8.562;2022-09-03T01:29:24;100104.06;;;18.16;45.78
62333;BME280;48624;49.812;8.562;2022-09-03T01:37:34;100113.31;;;18.22;46.19
62333;BME280;48624;49.812;8.562;2022-09-03T01:43:07;100103.13;;;18.34;45.24
62333;BME280;48624;49.812;8.562;2022-09-03T01:45:59;100109.78;;;18.30;46.11
62333;BME280;48624;49.812;8.562;2022-09-03T01:48:40;100117.34;;;18.35;45.35
62333;BME280;48624;49.812;8.562;2022-09-03T01:59:23;100115.38;;;18.53;44.61
62333;BME280;48624;49.812;8.562;2022-09-03T02:01:59;100114.91;;;18.50;45.02
62333;BME280;48624;49.812;8.562;2022-09-03T02:04:26;100117.75;;;18.56;44.55
62333;BME280;48624;49.812;8.562;2022-09-03T02:06:54;100114.41;;;18.71;44.06
62333;BME280;48624;49.812;8.562;2022-09-03T02:09:21;100116.59;;;18.76;44.07
62333;BME280;48624;49.812;8.562;2022-09-03T02:11:55;100120.28;;;18.83;44.05
62333;BME280;48624;49.812;8.562;2022-09-03T02:14:24;100122.81;;;18.84;43.87
62333;BME280;48624;49.812;8.562;2022-09-03T02:16:51;100123.66;;;18.85;44.06
62333;BME280;48624;49.812;8.562;2022-09-03T02:19:17;100116.25;;;18.95;43.61
62333;BME280;48624;49.812;8.562;2022-09-03T02:21:47;100123.16;;;18.98;43.81
62333;BME280;48624;49.812;8.562;2022-09-03T02:24:14;100121.84;;;19.02;43.74
62333;BME280;48624;49.812;8.562;2022-09-03T02:26:40;100122.84;;;19.01;43.41
62333;BME280;48624;49.812;8.562;2022-09-03T02:29:05;100122.00;;;19.01;43.72
62333;BME280;48624;49.812;8.562;2022-09-03T02:31:31;100119.84;;;19.04;43.53
62333;BME280;48624;49.812;8.562;2022-09-03T02:33:56;100127.19;;;19.10;43.49
62333;BME280;48624;49.812;8.562;2022-09-03T02:36:31;100131.41;;;19.05;44.22
62333;BME280;48624;49.812;8.562;2022-09-03T02:38:58;100128.56;;;19.06;43.89
62333;BME280;48624;49.812;8.562;2022-09-03T02:41:23;100125.53;;;19.01;44.19
62333;BME280;48624;49.812;8.562;2022-09-03T02:46:36;100121.50;;;19.05;44.07
62333;BME280;48624;49.812;8.562;2022-09-03T02:49:03;100123.03;;;19.08;44.03
62333;BME280;48624;49.812;8.562;2022-09-03T02:51:36;100131.59;;;19.03;44.56
62333;BME280;48624;49.812;8.562;2022-09-03T02:54:02;100118.16;;;19.03;44.23
62333;BME280;48624;49.812;8.562;2022-09-03T02:56:28;100117.81;;;19.06;44.27
62333;BME280;48624;49.812;8.562;2022-09-03T02:58:53;100117.31;;;19.03;44.26
62333;BME280;48624;49.812;8.562;2022-09-03T03:01:19;100114.28;;;19.06;43.90
62333;BME280;48624;49.812;8.562;2022-09-03T03:03:45;100121.34;;;19.07;44.06
62333;BME280;48624;49.812;8.562;2022-09-03T03:06:11;100125.00;;;19.06;44.15
62333;BME280;48624;49.812;8.562;2022-09-03T03:08:37;100118.81;;;19.05;44.18
62333;BME280;48624;49.812;8.562;2022-09-03T03:11:03;100128.56;;;19.15;44.26
62333;BME280;48624;49.812;8.562;2022-09-03T03:13:30;100124.50;;;19.10;44.48
62333;BME280;48624;49.812;8.562;2022-09-03T03:15:59;100117.81;;;19.06;44.35
62333;BME280;48624;49.812;8.562;2022-09-03T03:18:25;100112.59;;;19.05;44.70
62333;BME280;48624;49.812;8.562;2022-09-03T03:20:50;100113.09;;;19.08;44.42
62333;BME280;48624;49.812;8.562;2022-09-03T03:23:16;100102.38;;;19.08;44.28
62333;BME280;48624;49.812;8.562;2022-09-03T03:25:41;100104.91;;;19.02;44.28
62333;BME280;48624;49.812;8.562;2022-09-03T03:28:06;100093.81;;;19.05;44.10
62333;BME280;48624;49.812;8.562;2022-09-03T03:30:32;100093.00;;;19.04;44.23
62333;BME280;48624;49.812;8.562;2022-09-03T03:32:58;100098.69;;;19.09;44.54
62333;BME280;48624;49.812;8.562;2022-09-03T03:35:24;100107.44;;;19.03;44.47
62333;BME280;48624;49.812;8.562;2022-09-03T03:37:49;100113.28;;;19.07;44.51
62333;BME280;48624;49.812;8.562;2022-09-03T03:40:15;100116.25;;;18.95;44.82
62333;BME280;48624;49.812;8.562;2022-09-03T03:42:41;100121.34;;;19.07;44.55
62333;BME280;48624;49.812;8.562;2022-09-03T03:45:07;100117.63;;;18.99;44.96
62333;BME280;48624;49.812;8.562;2022-09-03T03:47:34;100113.41;;;18.97;44.96
62333;BME280;48624;49.812;8.562;2022-09-03T03:49:59;100118.44;;;19.00;44.99
62333;BME280;48624;49.812;8.562;2022-09-03T03:52:26;100120.31;;;18.99;44.83
62333;BME280;48624;49.812;8.562;2022-09-03T03:54:52;100127.34;;;18.92;45.18
62333;BME280;48624;49.812;8.562;2022-09-03T03:57:18;100122.31;;;18.89;45.22
62333;BME280;48624;49.812;8.562;2022-09-03T03:59:44;100124.00;;;18.90;45.52
62333;BME280;48624;49.812;8.562;2022-09-03T04:02:10;100124.63;;;18.67;45.98
62333;BME280;48624;49.812;8.562;2022-09-03T04:04:35;100120.13;;;18.76;45.64
62333;BME280;48624;49.812;8.562;2022-09-03T04:07:01;100115.75;;;18.58;46.06
62333;BME280;48624;49.812;8.562;2022-09-03T04:09:26;100127.81;;;18.63;46.01
62333;BME280;48624;49.812;8.562;2022-09-03T04:11:51;100111.53;;;18.56;46.38
62333;BME280;48624;49.812;8.562;2022-09-03T04:14:16;100110.50;;;18.49;46.83
62333;BME280;48624;49.812;8.562;2022-09-03T04:16:42;100115.53;;;18.43;46.72
62333;BME280;48624;49.812;8.562;2022-09-03T04:19:11;100117.38;;;18.43;46.96
62333;BME280;48624;49.812;8.562;2022-09-03T04:21:36;100106.97;;;18.40;46.98
62333;BME280;48624;49.812;8.562;2022-09-03T04:24:03;100101.78;;;18.38;47.48
62333;BME280;48624;49.812;8.562;2022-09-03T04:26:30;100101.97;;;18.37;47.19
62333;BME280;48624;49.812;8.562;2022-09-03T04:29:07;100109.66;;;18.40;47.18
62333;BME280;48624;49.812;8.562;2022-09-03T04:31:34;100101.97;;;18.45;46.99
62333;BME280;48624;49.812;8.562;2022-09-03T04:34:00;100108.00;;;18.39;47.19
62333;BME280;48624;49.812;8.562;2022-09-03T04:36:27;100112.38;;;18.48;47.23
62333;BME280;48624;49.812;8.562;2022-09-03T04:38:54;100101.66;;;18.48;47.06
62333;BME280;48624;49.812;8.562;2022-09-03T04:41:24;100114.03;;;18.49;47.49
62333;BME280;48624;49.812;8.562;2022-09-03T04:43:55;100106.00;;;18.49;47.75
62333;BME280;48624;49.812;8.562;2022-09-03T04:46:23;100114.41;;;18.54;47.31
62333;BME280;48624;49.812;8.562;2022-09-03T04:48:51;100118.75;;;18.64;46.77
62333;BME280;48624;49.812;8.562;2022-09-03T04:51:19;100114.72;;;18.60;47.26
62333;BME280;48624;49.812;8.562;2022-09-03T04:53:46;100107.34;;;18.62;46.98
62333;BME280;48624;49.812;8.562;2022-09-03T04:56:13;100119.44;;;18.66;47.16
62333;BME280;48624;49.812;8.562;2022-09-03T04:58:40;100113.72;;;18.61;47.39
62333;BME280;48624;49.812;8.562;2022-09-03T05:01:15;100116.75;;;18.66;48.00
62333;BME280;48624;49.812;8.562;2022-09-03T05:03:41;100122.66;;;18.69;47.08
62333;BME280;48624;49.812;8.562;2022-09-03T05:06:07;100119.28;;;18.76;47.44
62333;BME280;48624;49.812;8.562;2022-09-03T05:08:34;100126.81;;;18.80;47.25
62333;BME280;48624;49.812;8.562;2022-09-03T05:11:01;100127.00;;;18.87;47.37
62333;BME280;48624;49.812;8.562;2022-09-03T05:13:27;100130.03;;;18.92;47.52
62333;BME280;48624;49.812;8.562;2022-09-03T05:16:00;100136.75;;;18.88;47.64
62333;BME280;48624;49.812;8.562;2022-09-03T05:18:26;100131.84;;;18.92;47.31
62333;BME280;48624;49.812;8.562;2022-09-03T05:21:03;100132.88;;;18.99;47.96
62333;BME280;48624;49.812;8.562;2022-09-03T05:23:30;100138.13;;;19.09;47.35
62333;BME280;48624;49.812;8.562;2022-09-03T05:26:03;100135.91;;;18.96;48.88
62333;BME280;48624;49.812;8.562;2022-09-03T05:28:34;100138.13;;;19.01;48.33
62333;BME280;48624;49.812;8.562;2022-09-03T05:31:01;100152.38;;;19.01;48.57
62333;BME280;48624;49.812;8.562;2022-09-03T05:33:27;100151.16;;;18.95;49.29
62333;BME280;48624;49.812;8.562;2022-09-03T05:35:59;100159.19;;;18.87;50.14
62333;BME280;48624;49.812;8.562;2022-09-03T05:38:24;100156.53;;;18.79;50.86
62333;BME280;48624;49.812;8.562;2022-09-03T05:40:50;100158.19;;;18.96;49.87
62333;BME280;48624;49.812;8.562;2022-09-03T05:43:15;100168.94;;;18.96;50.99
62333;BME280;48624;49.812;8.562;2022-09-03T05:45:41;100175.22;;;19.13;50.48
62333;BME280;48624;49.812;8.562;2022-09-03T05:48:06;100171.34;;;19.08;51.04
62333;BME280;48624;49.812;8.562;2022-09-03T05:50:31;100182.41;;;19.21;51.16
62333;BME280;48624;49.812;8.562;2022-09-03T05:52:57;100176.50;;;18.93;53.87
62333;BME280;48624;49.812;8.562;2022-09-03T05:55:23;100184.56;;;18.93;54.32
62333;BME280;48624;49.812;8.562;2022-09-03T05:57:51;100191.22;;;18.72;58.08
62333;BME280;48624;49.812;8.562;2022-09-03T06:00:16;100193.09;;;18.80;55.88
62333;BME280;48624;49.812;8.562;2022-09-03T06:02:51;100201.44;;;18.25;65.67
62333;BME280;48624;49.812;8.562;2022-09-03T06:05:18;100199.19;;;18.39;63.19
62333;BME280;48624;49.812;8.562;2022-09-03T06:07:44;100198.66;;;18.35;63.39
62333;BME280;48624;49.812;8.562;2022-09-03T06:10:16;100203.66;;;18.30;64.71
62333;BME280;48624;49.812;8.562;2022-09-03T06:12:42;100215.19;;;18.22;65.15
62333;BME280;48624;49.812;8.562;2022-09-03T06:15:13;100194.91;;;17.93;67.81
62333;BME280;48624;49.812;8.562;2022-09-03T06:17:39;100213.41;;;17.78;71.07
62333;BME280;48624;49.812;8.562;2022-09-03T06:20:04;100206.03;;;17.80;67.75
62333;BME280;48624;49.812;8.562;2022-09-03T06:22:30;100206.69;;;17.29;72.75
62333;BME280;48624;49.812;8.562;2022-09-03T06:24:55;100214.19;;;17.08;74.38
62333;BME280;48624;49.812;8.562;2022-09-03T06:27:20;100221.00;;;17.20;72.81
62333;BME280;48624;49.812;8.562;2022-09-03T06:29:46;100219.00;;;17.04;74.60
62333;BME280;48624;49.812;8.562;2022-09-03T06:32:11;100220.03;;;16.93;75.85
62333;BME280;48624;49.812;8.562;2022-09-03T06:34:36;100215.28;;;16.69;78.50
62333;BME280;48624;49.812;8.562;2022-09-03T06:37:02;100220.06;;;16.65;78.75
62333;BME280;48624;49.812;8.562;2022-09-03T06:39:27;100231.69;;;16.74;79.56
62333;BME280;48624;49.812;8.562;2022-09-03T06:41:52;100234.66;;;16.53;80.21
62333;BME280;48624;49.812;8.562;2022-09-03T06:44:19;100233.34;;;16.57;80.41
62333;BME280;48624;49.812;8.562;2022-09-03T06:46:44;100232.00;;;16.71;80.19
62333;BME280;48624;49.812;8.562;2022-09-03T06:49:11;100236.81;;;16.39;84.40
62333;BME280;48624;49.812;8.562;2022-09-03T06:51:37;100242.47;;;16.64;82.35
62333;BME280;48624;49.812;8.562;2022-09-03T06:54:08;100241.59;;;16.91;81.23
62333;BME280;48624;49.812;8.562;2022-09-03T06:56:35;100249.00;;;17.08;81.37
62333;BME280;48624;49.812;8.562;2022-09-03T06:59:07;100255.63;;;17.03;81.27
62333;BME280;48624;49.812;8.562;2022-09-03T07:01:33;100250.59;;;17.00;81.58
62333;BME280;48624;49.812;8.562;2022-09-03T07:04:01;100244.94;;;17.03;80.35
62333;BME280;48624;49.812;8.562;2022-09-03T07:06:29;100251.00;;;16.96;81.07
62333;BME280;48624;49.812;8.562;2022-09-03T07:08:55;100254.34;;;17.08;80.03
62333;BME280;48624;49.812;8.562;2022-09-03T07:11:23;100251.59;;;17.17;80.52
62333;BME280;48624;49.812;8.562;2022-09-03T07:13:50;100251.41;;;17.01;82.44
62333;BME280;48624;49.812;8.562;2022-09-03T07:16:27;100245.47;;;17.07;81.52
62333;BME280;48624;49.812;8.562;2022-09-03T07:18:53;100253.94;;;17.20;79.75
62333;BME280;48624;49.812;8.562;2022-09-03T07:21:22;100246.69;;;16.85;83.04
62333;BME280;48624;49.812;8.562;2022-09-03T07:23:48;100253.56;;;16.41;84.81
62333;BME280;48624;49.812;8.562;2022-09-03T07:26:20;100239.53;;;16.29;85.56
62333;BME280;48624;49.812;8.562;2022-09-03T07:28:46;100247.81;;;16.36;86.83
62333;BME280;48624;49.812;8.562;2022-09-03T07:31:23;100249.09;;;16.32;86.71
62333;BME280;48624;49.812;8.562;2022-09-03T07:33:52;100252.47;;;16.34;87.60
62333;BME280;48624;49.812;8.562;2022-09-03T07:36:20;100254.28;;;16.33;88.77
62333;BME280;48624;49.812;8.562;2022-09-03T07:38:45;100253.78;;;16.10;88.04
62333;BME280;48624;49.812;8.562;2022-09-03T07:41:12;100250.44;;;16.08;89.42
62333;BME280;48624;49.812;8.562;2022-09-03T07:43:42;100259.75;;;15.94;91.52
62333;BME280;48624;49.812;8.562;2022-09-03T07:46:10;100247.63;;;16.00;90.30
62333;BME280;48624;49.812;8.562;2022-09-03T07:48:39;100254.00;;;15.89;89.94
62333;BME280;48624;49.812;8.562;2022-09-03T07:51:06;100263.69;;;16.00;90.47
62333;BME280;48624;49.812;8.562;2022-09-03T07:53:32;100257.34;;;16.01;90.07
62333;BME280;48624;49.812;8.562;2022-09-03T07:56:16;100260.06;;;15.91;88.93
62333;BME280;48624;49.812;8.562;2022-09-03T07:58:41;100259.56;;;16.05;90.32
62333;BME280;48624;49.812;8.562;2022-09-03T08:01:09;100268.28;;;16.07;88.84
62333;BME280;48624;49.812;8.562;2022-09-03T08:03:35;100282.50;;;16.18;89.74
62333;BME280;48624;49.812;8.562;2022-09-03T08:06:05;100272.16;;;16.33;87.60
62333;BME280;48624;49.812;8.562;2022-09-03T08:08:32;100269.28;;;16.06;90.56
62333;BME280;48624;49.812;8.562;2022-09-03T08:11:11;100270.31;;;16.33;88.52
62333;BME280;48624;49.812;8.562;2022-09-03T08:13:42;100266.88;;;16.51;87.21
62333;BME280;48624;49.812;8.562;2022-09-03T08:16:14;100274.09;;;16.41;89.41
62333;BME280;48624;49.812;8.562;2022-09-03T08:18:40;100269.69;;;16.77;88.13
62333;BME280;48624;49.812;8.562;2022-09-03T08:21:12;100261.19;;;16.64;86.24
62333;BME280;48624;49.812;8.562;2022-09-03T08:23:41;100256.63;;;16.74;89.05
62333;BME280;48624;49.812;8.562;2022-09-03T08:26:10;100257.53;;;16.65;89.08
62333;BME280;48624;49.812;8.562;2022-09-03T08:28:37;100254.50;;;16.96;88.82
62333;BME280;48624;49.812;8.562;2022-09-03T08:31:07;100257.41;;;17.13;87.88
62333;BME280;48624;49.812;8.562;2022-09-03T08:33:36;100261.53;;;17.07;85.69
62333;BME280;48624;49.812;8.562;2022-09-03T08:38:37;100251.34;;;17.47;86.11
62333;BME280;48624;49.812;8.562;2022-09-03T08:44:03;100267.06;;;17.68;80.73
62333;BME280;48624;49.812;8.562;2022-09-03T08:46:43;100272.59;;;17.48;79.29
62333;BME280;48624;49.812;8.562;2022-09-03T08:49:13;100276.31;;;17.92;84.62
62333;BME280;48624;49.812;8.562;2022-09-03T08:51:41;100286.44;;;17.80;89.58
62333;BME280;48624;49.812;8.562;2022-09-03T08:54:09;100290.34;;;17.68;86.16
62333;BME280;48624;49.812;8.562;2022-09-03T08:56:38;100273.59;;;18.10;85.17
62333;BME280;48624;49.812;8.562;2022-09-03T08:59:06;100277.44;;;18.08;83.85
62333;BME280;48624;49.812;8.562;2022-09-03T09:05:01;100291.75;;;18.16;86.95
62333;BME280;48624;49.812;8.562;2022-09-03T09:07:36;100294.53;;;18.33;85.21
62333;BME280;48624;49.812;8.562;2022-09-03T09:13:02;100299.97;;;18.23;84.15
